sensor_id;sensor_type;location;lat;lon;timestamp;temperature;humidity
9389;DHT22;4734;52.778;6.798;2023-05-28T00:00:02;15.90;91.30
9389;DHT22;4734;52.778;6.798;2023-05-28T00:02:48;15.90;90.80
9389;DHT22;4734;52.778;6.798;2023-05-28T00:05:33;15.90;90.90
9389;DHT22;4734;52.778;6.798;2023-05-28T00:08:19;15.90;90.80
9389;DHT22;4734;52.778;6.798;2023-05-28T00:11:05;15.80;90.70
9389;DHT22;4734;52.778;6.798;2023-05-28T00:13:52;15.80;90.60
9389;DHT22;4734;52.778;6.798;2023-05-28T00:16:37;15.80;90.70
9389;DHT22;4734;52.778;6.798;2023-05-28T00:19:25;15.80;90.90
9389;DHT22;4734;52.778;6.798;2023-05-28T00:22:10;15.70;90.60
9389;DHT22;4734;52.778;6.798;2023-05-28T00:24:56;15.70;90.70
9389;DHT22;4734;52.778;6.798;2023-05-28T00:27:41;15.60;90.60
9389;DHT22;4734;52.778;6.798;2023-05-28T00:30:28;15.60;90.70
9389;DHT22;4734;52.778;6.798;2023-05-28T00:33:14;15.60;90.60
9389;DHT22;4734;52.778;6.798;2023-05-28T00:36:00;15.60;90.60
9389;DHT22;4734;52.778;6.798;2023-05-28T00:38:45;15.50;90.50
9389;DHT22;4734;52.778;6.798;2023-05-28T00:41:31;15.50;90.50
9389;DHT22;4734;52.778;6.798;2023-05-28T00:44:19;15.40;90.80
9389;DHT22;4734;52.778;6.798;2023-05-28T00:47:06;15.40;90.40
9389;DHT22;4734;52.778;6.798;2023-05-28T00:49:52;15.40;90.50
9389;DHT22;4734;52.778;6.798;2023-05-28T00:52:39;15.30;90.40
9389;DHT22;4734;52.778;6.798;2023-05-28T00:55:25;15.30;90.40
9389;DHT22;4734;52.778;6.798;2023-05-28T00:58:11;15.30;90.70
9389;DHT22;4734;52.778;6.798;2023-05-28T01:00:56;15.20;90.30
9389;DHT22;4734;52.778;6.798;2023-05-28T01:03:43;15.20;90.30
9389;DHT22;4734;52.778;6.798;2023-05-28T01:06:29;15.20;90.60
9389;DHT22;4734;52.778;6.798;2023-05-28T01:09:15;15.10;90.60
9389;DHT22;4734;52.778;6.798;2023-05-28T01:12:02;15.10;90.20
9389;DHT22;4734;52.778;6.798;2023-05-28T01:14:49;15.00;90.30
9389;DHT22;4734;52.778;6.798;2023-05-28T01:17:35;15.00;90.20
9389;DHT22;4734;52.778;6.798;2023-05-28T01:20:23;15.00;90.10
9389;DHT22;4734;52.778;6.798;2023-05-28T01:23:11;15.00;90.20
9389;DHT22;4734;52.778;6.798;2023-05-28T01:25:59;14.90;90.10
9389;DHT22;4734;52.778;6.798;2023-05-28T01:28:45;14.90;90.10
9389;DHT22;4734;52.778;6.798;2023-05-28T01:31:31;14.90;90.00
9389;DHT22;4734;52.778;6.798;2023-05-28T01:34:17;14.80;90.00
9389;DHT22;4734;52.778;6.798;2023-05-28T01:37:07;14.70;90.00
9389;DHT22;4734;52.778;6.798;2023-05-28T01:39:54;14.70;90.00
9389;DHT22;4734;52.778;6.798;2023-05-28T01:42:41;14.70;90.00
9389;DHT22;4734;52.778;6.798;2023-05-28T01:45:27;14.60;90.00
9389;DHT22;4734;52.778;6.798;2023-05-28T01:48:14;14.60;90.00
9389;DHT22;4734;52.778;6.798;2023-05-28T01:50:59;14.60;90.00
9389;DHT22;4734;52.778;6.798;2023-05-28T01:53:45;14.60;90.00
9389;DHT22;4734;52.778;6.798;2023-05-28T01:56:31;14.50;89.80
9389;DHT22;4734;52.778;6.798;2023-05-28T01:59:17;14.50;90.00
9389;DHT22;4734;52.778;6.798;2023-05-28T02:02:04;14.50;90.30
9389;DHT22;4734;52.778;6.798;2023-05-28T02:04:49;14.40;89.90
9389;DHT22;4734;52.778;6.798;2023-05-28T02:07:35;14.40;89.80
9389;DHT22;4734;52.778;6.798;2023-05-28T02:10:21;14.40;89.90
9389;DHT22;4734;52.778;6.798;2023-05-28T02:13:06;14.30;89.80
9389;DHT22;4734;52.778;6.798;2023-05-28T02:15:53;14.30;89.40
9389;DHT22;4734;52.778;6.798;2023-05-28T02:18:38;14.30;89.60
9389;DHT22;4734;52.778;6.798;2023-05-28T02:21:23;14.20;89.50
9389;DHT22;4734;52.778;6.798;2023-05-28T02:24:09;14.10;89.70
9389;DHT22;4734;52.778;6.798;2023-05-28T02:26:55;14.10;89.50
9389;DHT22;4734;52.778;6.798;2023-05-28T02:29:40;14.10;89.60
9389;DHT22;4734;52.778;6.798;2023-05-28T02:32:28;14.10;89.60
9389;DHT22;4734;52.778;6.798;2023-05-28T02:35:14;14.00;89.30
9389;DHT22;4734;52.778;6.798;2023-05-28T02:38:00;14.00;89.30
9389;DHT22;4734;52.778;6.798;2023-05-28T02:40:46;14.00;89.40
9389;DHT22;4734;52.778;6.798;2023-05-28T02:43:32;13.90;89.40
9389;DHT22;4734;52.778;6.798;2023-05-28T02:46:17;14.00;89.20
9389;DHT22;4734;52.778;6.798;2023-05-28T02:49:04;13.90;89.30
9389;DHT22;4734;52.778;6.798;2023-05-28T02:51:50;13.90;89.20
9389;DHT22;4734;52.778;6.798;2023-05-28T02:54:36;13.80;89.40
9389;DHT22;4734;52.778;6.798;2023-05-28T02:57:21;13.80;89.30
9389;DHT22;4734;52.778;6.798;2023-05-28T03:00:08;13.80;89.30
9389;DHT22;4734;52.778;6.798;2023-05-28T03:02:54;13.80;89.20
9389;DHT22;4734;52.778;6.798;2023-05-28T03:05:42;13.70;89.20
9389;DHT22;4734;52.778;6.798;2023-05-28T03:08:27;13.70;89.20
9389;DHT22;4734;52.778;6.798;2023-05-28T03:11:13;13.60;89.20
9389;DHT22;4734;52.778;6.798;2023-05-28T03:13:58;13.60;89.30
9389;DHT22;4734;52.778;6.798;2023-05-28T03:16:44;13.60;89.50
9389;DHT22;4734;52.778;6.798;2023-05-28T03:19:30;13.50;89.50
9389;DHT22;4734;52.778;6.798;2023-05-28T03:22:17;13.50;89.70
9389;DHT22;4734;52.778;6.798;2023-05-28T03:25:03;13.50;89.60
9389;DHT22;4734;52.778;6.798;2023-05-28T03:27:49;13.40;89.40
9389;DHT22;4734;52.778;6.798;2023-05-28T03:30:34;13.40;90.00
9389;DHT22;4734;52.778;6.798;2023-05-28T03:33:20;13.50;89.30
9389;DHT22;4734;52.778;6.798;2023-05-28T03:36:06;13.40;89.40
9389;DHT22;4734;52.778;6.798;2023-05-28T03:38:53;13.40;89.50
9389;DHT22;4734;52.778;6.798;2023-05-28T03:41:38;13.40;89.40
9389;DHT22;4734;52.778;6.798;2023-05-28T03:44:24;13.40;89.30
9389;DHT22;4734;52.778;6.798;2023-05-28T03:47:09;13.40;89.20
9389;DHT22;4734;52.778;6.798;2023-05-28T03:49:55;13.40;89.20
9389;DHT22;4734;52.778;6.798;2023-05-28T03:52:40;13.40;89.00
9389;DHT22;4734;52.778;6.798;2023-05-28T03:55:27;13.40;89.00
9389;DHT22;4734;52.778;6.798;2023-05-28T03:58:13;13.40;88.90
9389;DHT22;4734;52.778;6.798;2023-05-28T04:01:00;13.40;88.80
9389;DHT22;4734;52.778;6.798;2023-05-28T04:03:45;13.40;88.70
9389;DHT22;4734;52.778;6.798;2023-05-28T04:06:31;13.40;88.70
9389;DHT22;4734;52.778;6.798;2023-05-28T04:09:16;13.40;88.70
9389;DHT22;4734;52.778;6.798;2023-05-28T04:12:04;13.40;88.70
9389;DHT22;4734;52.778;6.798;2023-05-28T04:14:50;13.40;88.60
9389;DHT22;4734;52.778;6.798;2023-05-28T04:17:36;13.40;88.70
9389;DHT22;4734;52.778;6.798;2023-05-28T04:20:21;13.40;88.60
9389;DHT22;4734;52.778;6.798;2023-05-28T04:23:07;13.40;88.40
9389;DHT22;4734;52.778;6.798;2023-05-28T04:25:53;13.40;88.60
9389;DHT22;4734;52.778;6.798;2023-05-28T04:28:40;13.40;88.40
9389;DHT22;4734;52.778;6.798;2023-05-28T04:31:26;13.40;88.40
9389;DHT22;4734;52.778;6.798;2023-05-28T04:34:13;13.40;88.40
9389;DHT22;4734;52.778;6.798;2023-05-28T04:37:01;13.40;88.40
9389;DHT22;4734;52.778;6.798;2023-05-28T04:39:46;13.40;88.30
9389;DHT22;4734;52.778;6.798;2023-05-28T04:42:32;13.40;88.20
9389;DHT22;4734;52.778;6.798;2023-05-28T04:45:19;13.40;88.30
9389;DHT22;4734;52.778;6.798;2023-05-28T04:48:05;13.40;88.30
9389;DHT22;4734;52.778;6.798;2023-05-28T04:50:50;13.40;88.20
9389;DHT22;4734;52.778;6.798;2023-05-28T04:53:36;13.40;88.20
9389;DHT22;4734;52.778;6.798;2023-05-28T04:56:22;13.40;88.20
9389;DHT22;4734;52.778;6.798;2023-05-28T04:59:07;13.40;88.10
9389;DHT22;4734;52.778;6.798;2023-05-28T05:01:54;13.40;88.80
9389;DHT22;4734;52.778;6.798;2023-05-28T05:04:39;13.40;88.10
9389;DHT22;4734;52.778;6.798;2023-05-28T05:07:25;13.40;88.00
9389;DHT22;4734;52.778;6.798;2023-05-28T05:10:12;13.40;87.90
9389;DHT22;4734;52.778;6.798;2023-05-28T05:12:57;13.40;88.00
9389;DHT22;4734;52.778;6.798;2023-05-28T05:15:43;13.40;88.00
9389;DHT22;4734;52.778;6.798;2023-05-28T05:18:30;13.40;87.80
9389;DHT22;4734;52.778;6.798;2023-05-28T05:21:16;13.40;88.00
9389;DHT22;4734;52.778;6.798;2023-05-28T05:24:02;13.40;87.90
9389;DHT22;4734;52.778;6.798;2023-05-28T05:26:47;13.40;87.90
9389;DHT22;4734;52.778;6.798;2023-05-28T05:29:33;13.40;87.90
9389;DHT22;4734;52.778;6.798;2023-05-28T05:32:18;13.40;88.50
9389;DHT22;4734;52.778;6.798;2023-05-28T05:35:06;13.40;87.80
9389;DHT22;4734;52.778;6.798;2023-05-28T05:37:51;13.40;87.80
9389;DHT22;4734;52.778;6.798;2023-05-28T05:40:37;13.40;87.80
9389;DHT22;4734;52.778;6.798;2023-05-28T05:43:22;13.50;87.90
9389;DHT22;4734;52.778;6.798;2023-05-28T05:46:08;13.50;87.90
9389;DHT22;4734;52.778;6.798;2023-05-28T05:48:53;13.50;88.50
9389;DHT22;4734;52.778;6.798;2023-05-28T05:51:40;13.60;88.00
9389;DHT22;4734;52.778;6.798;2023-05-28T05:54:26;13.60;88.00
9389;DHT22;4734;52.778;6.798;2023-05-28T05:57:11;13.60;87.80
9389;DHT22;4734;52.778;6.798;2023-05-28T05:59:57;13.60;87.80
9389;DHT22;4734;52.778;6.798;2023-05-28T06:02:43;13.60;87.90
9389;DHT22;4734;52.778;6.798;2023-05-28T06:05:29;13.70;88.00
9389;DHT22;4734;52.778;6.798;2023-05-28T06:08:16;13.70;88.00
9389;DHT22;4734;52.778;6.798;2023-05-28T06:11:01;13.70;88.00
9389;DHT22;4734;52.778;6.798;2023-05-28T06:13:47;13.80;87.90
9389;DHT22;4734;52.778;6.798;2023-05-28T06:16:32;13.80;88.00
9389;DHT22;4734;52.778;6.798;2023-05-28T06:19:18;13.90;87.90
9389;DHT22;4734;52.778;6.798;2023-05-28T06:22:04;14.00;88.10
9389;DHT22;4734;52.778;6.798;2023-05-28T06:24:51;14.00;88.00
9389;DHT22;4734;52.778;6.798;2023-05-28T06:27:38;14.10;88.10
9389;DHT22;4734;52.778;6.798;2023-05-28T06:30:24;14.10;87.90
9389;DHT22;4734;52.778;6.798;2023-05-28T06:33:10;14.20;88.10
9389;DHT22;4734;52.778;6.798;2023-05-28T06:35:56;14.30;88.20
9389;DHT22;4734;52.778;6.798;2023-05-28T06:38:41;14.40;89.00
9389;DHT22;4734;52.778;6.798;2023-05-28T06:41:28;14.50;89.40
9389;DHT22;4734;52.778;6.798;2023-05-28T06:44:14;14.60;88.80
9389;DHT22;4734;52.778;6.798;2023-05-28T06:46:59;14.70;89.20
9389;DHT22;4734;52.778;6.798;2023-05-28T06:49:45;14.80;89.50
9389;DHT22;4734;52.778;6.798;2023-05-28T06:52:30;14.90;89.50
9389;DHT22;4734;52.778;6.798;2023-05-28T06:55:16;15.00;89.50
9389;DHT22;4734;52.778;6.798;2023-05-28T06:58:03;15.10;89.80
9389;DHT22;4734;52.778;6.798;2023-05-28T07:00:48;15.20;90.00
9389;DHT22;4734;52.778;6.798;2023-05-28T07:03:34;15.30;89.30
9389;DHT22;4734;52.778;6.798;2023-05-28T07:06:19;15.40;89.60
9389;DHT22;4734;52.778;6.798;2023-05-28T07:09:06;15.50;89.40
9389;DHT22;4734;52.778;6.798;2023-05-28T07:11:51;15.60;89.30
9389;DHT22;4734;52.778;6.798;2023-05-28T07:14:38;15.70;89.10
9389;DHT22;4734;52.778;6.798;2023-05-28T07:17:24;15.70;89.00
9389;DHT22;4734;52.778;6.798;2023-05-28T07:20:10;15.90;89.20
9389;DHT22;4734;52.778;6.798;2023-05-28T07:22:56;15.90;90.00
9389;DHT22;4734;52.778;6.798;2023-05-28T07:25:42;16.00;89.80
9389;DHT22;4734;52.778;6.798;2023-05-28T07:28:28;16.20;90.00
9389;DHT22;4734;52.778;6.798;2023-05-28T07:31:15;16.30;90.00
9389;DHT22;4734;52.778;6.798;2023-05-28T07:34:00;16.40;90.00
9389;DHT22;4734;52.778;6.798;2023-05-28T07:36:46;16.50;90.10
9389;DHT22;4734;52.778;6.798;2023-05-28T07:39:32;16.70;90.30
9389;DHT22;4734;52.778;6.798;2023-05-28T07:42:18;16.80;90.30
9389;DHT22;4734;52.778;6.798;2023-05-28T07:45:04;17.00;90.30
9389;DHT22;4734;52.778;6.798;2023-05-28T07:47:52;17.10;90.20
9389;DHT22;4734;52.778;6.798;2023-05-28T07:50:37;17.20;90.60
9389;DHT22;4734;52.778;6.798;2023-05-28T07:53:23;17.40;90.20
9389;DHT22;4734;52.778;6.798;2023-05-28T07:56:09;17.50;90.60
9389;DHT22;4734;52.778;6.798;2023-05-28T07:58:55;17.70;91.10
9389;DHT22;4734;52.778;6.798;2023-05-28T08:01:41;17.80;90.70
9389;DHT22;4734;52.778;6.798;2023-05-28T08:04:28;18.00;91.10
9389;DHT22;4734;52.778;6.798;2023-05-28T08:07:13;18.10;90.60
9389;DHT22;4734;52.778;6.798;2023-05-28T08:09:59;18.30;91.80
9389;DHT22;4734;52.778;6.798;2023-05-28T08:12:44;18.50;91.60
9389;DHT22;4734;52.778;6.798;2023-05-28T08:15:30;18.60;91.70
9389;DHT22;4734;52.778;6.798;2023-05-28T08:18:16;18.80;91.60
9389;DHT22;4734;52.778;6.798;2023-05-28T08:21:03;19.00;91.80
9389;DHT22;4734;52.778;6.798;2023-05-28T08:23:48;19.20;92.00
9389;DHT22;4734;52.778;6.798;2023-05-28T08:26:34;19.30;91.90
9389;DHT22;4734;52.778;6.798;2023-05-28T08:29:19;19.50;91.80
9389;DHT22;4734;52.778;6.798;2023-05-28T08:32:05;19.70;91.10
9389;DHT22;4734;52.778;6.798;2023-05-28T08:34:50;19.80;91.50
9389;DHT22;4734;52.778;6.798;2023-05-28T08:37:38;20.00;91.00
9389;DHT22;4734;52.778;6.798;2023-05-28T08:40:23;20.20;91.10
9389;DHT22;4734;52.778;6.798;2023-05-28T08:43:09;20.40;91.50
9389;DHT22;4734;52.778;6.798;2023-05-28T08:45:54;20.50;90.90
9389;DHT22;4734;52.778;6.798;2023-05-28T08:48:41;20.70;90.70
9389;DHT22;4734;52.778;6.798;2023-05-28T08:51:27;20.90;90.60
9389;DHT22;4734;52.778;6.798;2023-05-28T08:54:18;21.00;90.60
9389;DHT22;4734;52.778;6.798;2023-05-28T08:57:04;21.20;90.50
9389;DHT22;4734;52.778;6.798;2023-05-28T08:59:50;21.30;90.40
9389;DHT22;4734;52.778;6.798;2023-05-28T09:02:38;21.50;90.40
9389;DHT22;4734;52.778;6.798;2023-05-28T09:05:24;21.60;90.30
9389;DHT22;4734;52.778;6.798;2023-05-28T09:08:12;21.80;90.50
9389;DHT22;4734;52.778;6.798;2023-05-28T09:11:08;21.90;90.60
9389;DHT22;4734;52.778;6.798;2023-05-28T09:13:54;22.10;90.60
9389;DHT22;4734;52.778;6.798;2023-05-28T09:16:41;22.20;90.20
9389;DHT22;4734;52.778;6.798;2023-05-28T09:19:30;22.40;90.30
9389;DHT22;4734;52.778;6.798;2023-05-28T09:22:22;22.60;90.80
9389;DHT22;4734;52.778;6.798;2023-05-28T09:25:08;22.70;90.30
9389;DHT22;4734;52.778;6.798;2023-05-28T09:27:56;22.90;90.70
9389;DHT22;4734;52.778;6.798;2023-05-28T09:30:41;23.10;90.50
9389;DHT22;4734;52.778;6.798;2023-05-28T09:33:27;23.20;90.10
9389;DHT22;4734;52.778;6.798;2023-05-28T09:36:16;23.30;90.00
9389;DHT22;4734;52.778;6.798;2023-05-28T09:39:06;23.50;90.60
9389;DHT22;4734;52.778;6.798;2023-05-28T09:41:57;23.70;90.30
9389;DHT22;4734;52.778;6.798;2023-05-28T09:44:45;23.80;90.20
9389;DHT22;4734;52.778;6.798;2023-05-28T09:47:31;24.00;90.30
9389;DHT22;4734;52.778;6.798;2023-05-28T09:50:17;24.10;90.00
9389;DHT22;4734;52.778;6.798;2023-05-28T09:53:03;24.30;90.40
9389;DHT22;4734;52.778;6.798;2023-05-28T09:55:49;24.40;90.00
9389;DHT22;4734;52.778;6.798;2023-05-28T09:58:37;24.60;90.10
9389;DHT22;4734;52.778;6.798;2023-05-28T10:01:25;24.70;90.20
9389;DHT22;4734;52.778;6.798;2023-05-28T10:04:22;24.90;90.00
9389;DHT22;4734;52.778;6.798;2023-05-28T10:07:13;25.00;90.20
9389;DHT22;4734;52.778;6.798;2023-05-28T10:10:00;25.20;90.10
9389;DHT22;4734;52.778;6.798;2023-05-28T10:12:47;25.40;89.60
9389;DHT22;4734;52.778;6.798;2023-05-28T10:15:34;25.50;89.90
9389;DHT22;4734;52.778;6.798;2023-05-28T10:18:22;25.70;89.10
9389;DHT22;4734;52.778;6.798;2023-05-28T10:21:10;25.80;88.60
9389;DHT22;4734;52.778;6.798;2023-05-28T10:23:57;26.00;89.20
9389;DHT22;4734;52.778;6.798;2023-05-28T10:26:42;26.10;88.70
9389;DHT22;4734;52.778;6.798;2023-05-28T10:29:37;26.20;88.70
9389;DHT22;4734;52.778;6.798;2023-05-28T10:32:23;26.40;87.90
9389;DHT22;4734;52.778;6.798;2023-05-28T10:35:11;26.50;88.40
9389;DHT22;4734;52.778;6.798;2023-05-28T10:38:07;26.60;87.50
9389;DHT22;4734;52.778;6.798;2023-05-28T10:40:59;26.80;87.30
9389;DHT22;4734;52.778;6.798;2023-05-28T10:43:45;26.80;86.80
9389;DHT22;4734;52.778;6.798;2023-05-28T10:46:35;27.00;86.10
9389;DHT22;4734;52.778;6.798;2023-05-28T10:49:21;27.10;86.50
9389;DHT22;4734;52.778;6.798;2023-05-28T10:52:20;27.20;86.10
9389;DHT22;4734;52.778;6.798;2023-05-28T10:55:08;27.40;86.10
9389;DHT22;4734;52.778;6.798;2023-05-28T10:58:06;27.50;85.00
9389;DHT22;4734;52.778;6.798;2023-05-28T11:01:05;27.60;85.40
9389;DHT22;4734;52.778;6.798;2023-05-28T11:04:03;27.80;86.30
9389;DHT22;4734;52.778;6.798;2023-05-28T11:06:49;27.90;85.50
9389;DHT22;4734;52.778;6.798;2023-05-28T11:09:36;28.00;86.30
9389;DHT22;4734;52.778;6.798;2023-05-28T11:12:21;28.10;85.80
9389;DHT22;4734;52.778;6.798;2023-05-28T11:15:09;28.30;84.80
9389;DHT22;4734;52.778;6.798;2023-05-28T11:17:54;28.40;84.60
9389;DHT22;4734;52.778;6.798;2023-05-28T11:20:40;28.50;85.00
9389;DHT22;4734;52.778;6.798;2023-05-28T11:23:25;28.50;84.70
9389;DHT22;4734;52.778;6.798;2023-05-28T11:26:22;28.60;85.40
9389;DHT22;4734;52.778;6.798;2023-05-28T11:29:08;28.70;84.50
9389;DHT22;4734;52.778;6.798;2023-05-28T11:31:55;28.80;84.40
9389;DHT22;4734;52.778;6.798;2023-05-28T11:34:40;28.90;84.80
9389;DHT22;4734;52.778;6.798;2023-05-28T11:37:27;29.00;84.70
9389;DHT22;4734;52.778;6.798;2023-05-28T11:40:14;29.10;83.40
9389;DHT22;4734;52.778;6.798;2023-05-28T11:43:01;29.20;84.40
9389;DHT22;4734;52.778;6.798;2023-05-28T11:45:48;29.20;83.50
9389;DHT22;4734;52.778;6.798;2023-05-28T11:48:37;29.30;83.20
9389;DHT22;4734;52.778;6.798;2023-05-28T11:51:23;29.40;83.70
9389;DHT22;4734;52.778;6.798;2023-05-28T11:54:09;29.50;84.00
9389;DHT22;4734;52.778;6.798;2023-05-28T11:56:55;29.60;84.70
9389;DHT22;4734;52.778;6.798;2023-05-28T11:59:42;29.60;84.20
9389;DHT22;4734;52.778;6.798;2023-05-28T12:02:46;29.60;84.70
9389;DHT22;4734;52.778;6.798;2023-05-28T12:05:37;29.60;85.60
9389;DHT22;4734;52.778;6.798;2023-05-28T12:08:25;29.60;85.90
9389;DHT22;4734;52.778;6.798;2023-05-28T12:11:11;29.60;85.40
9389;DHT22;4734;52.778;6.798;2023-05-28T12:13:57;29.60;86.50
9389;DHT22;4734;52.778;6.798;2023-05-28T12:16:45;29.60;84.50
9389;DHT22;4734;52.778;6.798;2023-05-28T12:19:33;29.60;85.50
9389;DHT22;4734;52.778;6.798;2023-05-28T12:22:19;29.60;88.30
9389;DHT22;4734;52.778;6.798;2023-05-28T12:25:08;29.50;86.40
9389;DHT22;4734;52.778;6.798;2023-05-28T12:27:55;29.50;89.10
9389;DHT22;4734;52.778;6.798;2023-05-28T12:30:42;29.40;88.00
9389;DHT22;4734;52.778;6.798;2023-05-28T12:33:30;29.40;86.90
9389;DHT22;4734;52.778;6.798;2023-05-28T12:36:16;29.40;88.00
9389;DHT22;4734;52.778;6.798;2023-05-28T12:39:02;29.30;88.40
9389;DHT22;4734;52.778;6.798;2023-05-28T12:41:50;29.30;88.80
9389;DHT22;4734;52.778;6.798;2023-05-28T12:44:35;29.20;89.10
9389;DHT22;4734;52.778;6.798;2023-05-28T12:47:21;29.20;90.40
9389;DHT22;4734;52.778;6.798;2023-05-28T12:50:08;29.10;90.70
9389;DHT22;4734;52.778;6.798;2023-05-28T12:52:54;29.00;90.90
9389;DHT22;4734;52.778;6.798;2023-05-28T12:55:39;29.00;91.60
9389;DHT22;4734;52.778;6.798;2023-05-28T12:58:25;28.90;91.90
9389;DHT22;4734;52.778;6.798;2023-05-28T13:01:11;28.90;92.20
9389;DHT22;4734;52.778;6.798;2023-05-28T13:03:57;28.80;93.00
9389;DHT22;4734;52.778;6.798;2023-05-28T13:06:44;28.80;93.50
9389;DHT22;4734;52.778;6.798;2023-05-28T13:09:30;28.70;93.70
9389;DHT22;4734;52.778;6.798;2023-05-28T13:12:15;28.70;93.70
9389;DHT22;4734;52.778;6.798;2023-05-28T13:15:02;28.70;93.70
9389;DHT22;4734;52.778;6.798;2023-05-28T13:17:48;28.70;93.70
9389;DHT22;4734;52.778;6.798;2023-05-28T13:20:33;28.70;93.50
9389;DHT22;4734;52.778;6.798;2023-05-28T13:23:20;28.70;93.10
9389;DHT22;4734;52.778;6.798;2023-05-28T13:26:06;28.70;92.50
9389;DHT22;4734;52.778;6.798;2023-05-28T13:28:51;28.80;92.30
9389;DHT22;4734;52.778;6.798;2023-05-28T13:31:37;28.80;92.40
9389;DHT22;4734;52.778;6.798;2023-05-28T13:34:25;28.80;92.20
9389;DHT22;4734;52.778;6.798;2023-05-28T13:37:10;28.90;92.00
9389;DHT22;4734;52.778;6.798;2023-05-28T13:39:57;28.90;91.90
9389;DHT22;4734;52.778;6.798;2023-05-28T13:42:43;29.00;91.50
9389;DHT22;4734;52.778;6.798;2023-05-28T13:45:29;29.10;91.00
9389;DHT22;4734;52.778;6.798;2023-05-28T13:48:15;29.30;89.90
9389;DHT22;4734;52.778;6.798;2023-05-28T13:51:01;29.30;90.00
9389;DHT22;4734;52.778;6.798;2023-05-28T13:53:47;29.50;88.90
9389;DHT22;4734;52.778;6.798;2023-05-28T13:56:34;29.60;88.10
9389;DHT22;4734;52.778;6.798;2023-05-28T13:59:19;29.70;86.90
9389;DHT22;4734;52.778;6.798;2023-05-28T14:02:05;29.80;85.60
9389;DHT22;4734;52.778;6.798;2023-05-28T14:04:51;30.00;84.40
9389;DHT22;4734;52.778;6.798;2023-05-28T14:07:37;30.10;85.00
9389;DHT22;4734;52.778;6.798;2023-05-28T14:10:25;30.20;83.70
9389;DHT22;4734;52.778;6.798;2023-05-28T14:13:12;30.30;83.50
9389;DHT22;4734;52.778;6.798;2023-05-28T14:15:58;30.40;83.60
9389;DHT22;4734;52.778;6.798;2023-05-28T14:18:43;30.50;83.20
9389;DHT22;4734;52.778;6.798;2023-05-28T14:21:29;30.60;83.00
9389;DHT22;4734;52.778;6.798;2023-05-28T14:24:15;30.60;82.90
9389;DHT22;4734;52.778;6.798;2023-05-28T14:27:00;30.70;82.40
9389;DHT22;4734;52.778;6.798;2023-05-28T14:29:47;30.80;82.00
9389;DHT22;4734;52.778;6.798;2023-05-28T14:32:32;30.90;82.50
9389;DHT22;4734;52.778;6.798;2023-05-28T14:35:18;31.00;82.20
9389;DHT22;4734;52.778;6.798;2023-05-28T14:38:05;31.00;82.30
9389;DHT22;4734;52.778;6.798;2023-05-28T14:40:50;31.10;81.80
9389;DHT22;4734;52.778;6.798;2023-05-28T14:43:36;31.20;81.80
9389;DHT22;4734;52.778;6.798;2023-05-28T14:46:23;31.30;81.70
9389;DHT22;4734;52.778;6.798;2023-05-28T14:49:08;31.30;81.30
9389;DHT22;4734;52.778;6.798;2023-05-28T14:51:55;31.30;81.30
9389;DHT22;4734;52.778;6.798;2023-05-28T14:54:41;31.40;81.30
9389;DHT22;4734;52.778;6.798;2023-05-28T14:57:27;31.40;81.80
9389;DHT22;4734;52.778;6.798;2023-05-28T15:00:14;31.40;80.80
9389;DHT22;4734;52.778;6.798;2023-05-28T15:03:01;31.50;81.50
9389;DHT22;4734;52.778;6.798;2023-05-28T15:05:47;31.50;80.90
9389;DHT22;4734;52.778;6.798;2023-05-28T15:08:32;31.60;80.60
9389;DHT22;4734;52.778;6.798;2023-05-28T15:11:18;31.60;80.80
9389;DHT22;4734;52.778;6.798;2023-05-28T15:14:06;31.60;80.70
9389;DHT22;4734;52.778;6.798;2023-05-28T15:16:51;31.60;81.10
9389;DHT22;4734;52.778;6.798;2023-05-28T15:19:38;31.60;80.80
9389;DHT22;4734;52.778;6.798;2023-05-28T15:22:24;31.60;80.80
9389;DHT22;4734;52.778;6.798;2023-05-28T15:25:10;31.60;80.60
9389;DHT22;4734;52.778;6.798;2023-05-28T15:27:56;31.60;80.50
9389;DHT22;4734;52.778;6.798;2023-05-28T15:30:43;31.60;80.40
9389;DHT22;4734;52.778;6.798;2023-05-28T15:33:29;31.60;80.40
9389;DHT22;4734;52.778;6.798;2023-05-28T15:36:18;31.60;80.50
9389;DHT22;4734;52.778;6.798;2023-05-28T15:39:04;31.60;80.60
9389;DHT22;4734;52.778;6.798;2023-05-28T15:41:51;31.60;80.20
9389;DHT22;4734;52.778;6.798;2023-05-28T15:44:38;31.50;79.60
9389;DHT22;4734;52.778;6.798;2023-05-28T15:47:23;31.50;80.10
9389;DHT22;4734;52.778;6.798;2023-05-28T15:50:09;31.40;79.60
9389;DHT22;4734;52.778;6.798;2023-05-28T15:52:56;31.40;79.90
9389;DHT22;4734;52.778;6.798;2023-05-28T15:55:42;31.30;79.40
9389;DHT22;4734;52.778;6.798;2023-05-28T15:58:28;31.20;79.20
9389;DHT22;4734;52.778;6.798;2023-05-28T16:01:17;31.20;79.30
9389;DHT22;4734;52.778;6.798;2023-05-28T16:04:04;31.20;79.10
9389;DHT22;4734;52.778;6.798;2023-05-28T16:06:50;31.10;79.00
9389;DHT22;4734;52.778;6.798;2023-05-28T16:09:40;31.00;79.10
9389;DHT22;4734;52.778;6.798;2023-05-28T16:12:28;30.90;79.10
9389;DHT22;4734;52.778;6.798;2023-05-28T16:15:13;30.90;78.80
9389;DHT22;4734;52.778;6.798;2023-05-28T16:18:01;30.80;78.80
9389;DHT22;4734;52.778;6.798;2023-05-28T16:20:47;30.70;79.20
9389;DHT22;4734;52.778;6.798;2023-05-28T16:23:33;30.70;79.40
9389;DHT22;4734;52.778;6.798;2023-05-28T16:26:21;30.60;79.10
9389;DHT22;4734;52.778;6.798;2023-05-28T16:29:07;30.50;78.70
9389;DHT22;4734;52.778;6.798;2023-05-28T16:31:53;30.40;79.20
9389;DHT22;4734;52.778;6.798;2023-05-28T16:34:39;30.40;79.40
9389;DHT22;4734;52.778;6.798;2023-05-28T16:37:25;30.30;79.40
9389;DHT22;4734;52.778;6.798;2023-05-28T16:40:12;30.20;79.10
9389;DHT22;4734;52.778;6.798;2023-05-28T16:42:59;30.10;79.40
9389;DHT22;4734;52.778;6.798;2023-05-28T16:45:46;30.00;79.10
9389;DHT22;4734;52.778;6.798;2023-05-28T16:48:32;30.00;79.40
9389;DHT22;4734;52.778;6.798;2023-05-28T16:51:17;29.90;79.70
9389;DHT22;4734;52.778;6.798;2023-05-28T16:54:03;29.80;79.80
9389;DHT22;4734;52.778;6.798;2023-05-28T16:56:49;29.70;79.70
9389;DHT22;4734;52.778;6.798;2023-05-28T16:59:36;29.60;79.80
9389;DHT22;4734;52.778;6.798;2023-05-28T17:02:23;29.50;79.30
9389;DHT22;4734;52.778;6.798;2023-05-28T17:05:09;29.40;79.40
9389;DHT22;4734;52.778;6.798;2023-05-28T17:07:54;29.30;79.70
9389;DHT22;4734;52.778;6.798;2023-05-28T17:10:40;29.20;79.40
9389;DHT22;4734;52.778;6.798;2023-05-28T17:13:25;29.00;79.40
9389;DHT22;4734;52.778;6.798;2023-05-28T17:16:12;28.90;79.50
9389;DHT22;4734;52.778;6.798;2023-05-28T17:18:57;28.80;79.50
9389;DHT22;4734;52.778;6.798;2023-05-28T17:21:43;28.70;79.40
9389;DHT22;4734;52.778;6.798;2023-05-28T17:24:29;28.60;79.60
9389;DHT22;4734;52.778;6.798;2023-05-28T17:27:15;28.50;79.20
9389;DHT22;4734;52.778;6.798;2023-05-28T17:30:00;28.40;79.70
9389;DHT22;4734;52.778;6.798;2023-05-28T17:32:47;28.20;79.50
9389;DHT22;4734;52.778;6.798;2023-05-28T17:35:32;28.10;79.80
9389;DHT22;4734;52.778;6.798;2023-05-28T17:38:18;28.00;79.70
9389;DHT22;4734;52.778;6.798;2023-05-28T17:41:03;27.90;80.30
9389;DHT22;4734;52.778;6.798;2023-05-28T17:43:49;27.80;80.20
9389;DHT22;4734;52.778;6.798;2023-05-28T17:46:36;27.60;80.30
9389;DHT22;4734;52.778;6.798;2023-05-28T17:49:26;27.50;80.20
9389;DHT22;4734;52.778;6.798;2023-05-28T17:52:11;27.40;80.50
9389;DHT22;4734;52.778;6.798;2023-05-28T17:54:57;27.30;80.60
9389;DHT22;4734;52.778;6.798;2023-05-28T17:57:42;27.10;80.50
9389;DHT22;4734;52.778;6.798;2023-05-28T18:00:29;27.00;80.60
9389;DHT22;4734;52.778;6.798;2023-05-28T18:03:15;26.80;80.80
9389;DHT22;4734;52.778;6.798;2023-05-28T18:06:03;26.70;80.90